sensor_id;sensor_type;location;lat;lon;timestamp;temperature;humidity
5980;DHT22;3016;50.308;8.258;2023-02-01T00:02:57;4.70;1.00
5980;DHT22;3016;50.308;8.258;2023-02-01T00:05:58;4.70;1.00
5980;DHT22;3016;50.308;8.258;2023-02-01T00:09:00;4.70;1.00
5980;DHT22;3016;50.308;8.258;2023-02-01T00:12:00;4.70;1.00
5980;DHT22;3016;50.308;8.258;2023-02-01T00:15:03;4.60;1.00
5980;DHT22;3016;50.308;8.258;2023-02-01T00:18:04;4.60;1.00
5980;DHT22;3016;50.308;8.258;2023-02-01T00:21:04;4.60;1.00
5980;DHT22;3016;50.308;8.258;2023-02-01T00:24:06;4.70;1.00
5980;DHT22;3016;50.308;8.258;2023-02-01T00:27:07;4.70;1.00
5980;DHT22;3016;50.308;8.258;2023-02-01T00:30:08;4.80;1.00
5980;DHT22;3016;50.308;8.258;2023-02-01T00:33:09;4.70;1.00
5980;DHT22;3016;50.308;8.258;2023-02-01T00:36:10;4.80;1.00
5980;DHT22;3016;50.308;8.258;2023-02-01T00:39:11;4.80;1.00
5980;DHT22;3016;50.308;8.258;2023-02-01T00:42:12;4.80;1.00
5980;DHT22;3016;50.308;8.258;2023-02-01T00:45:13;4.80;1.00
5980;DHT22;3016;50.308;8.258;2023-02-01T00:48:13;4.80;1.00
5980;DHT22;3016;50.308;8.258;2023-02-01T00:51:17;4.80;1.00
5980;DHT22;3016;50.308;8.258;2023-02-01T00:54:19;4.80;1.00
5980;DHT22;3016;50.308;8.258;2023-02-01T00:57:20;4.80;1.00
5980;DHT22;3016;50.308;8.258;2023-02-01T01:00:20;4.80;1.00
5980;DHT22;3016;50.308;8.258;2023-02-01T01:03:22;4.80;1.00
5980;DHT22;3016;50.308;8.258;2023-02-01T01:06:26;4.80;1.00
5980;DHT22;3016;50.308;8.258;2023-02-01T01:09:28;4.80;1.00
5980;DHT22;3016;50.308;8.258;2023-02-01T01:12:29;4.80;1.00
5980;DHT22;3016;50.308;8.258;2023-02-01T01:15:29;4.80;1.00
5980;DHT22;3016;50.308;8.258;2023-02-01T01:18:31;4.90;1.00
5980;DHT22;3016;50.308;8.258;2023-02-01T01:21:33;5.00;1.00
5980;DHT22;3016;50.308;8.258;2023-02-01T01:24:34;5.00;1.00
5980;DHT22;3016;50.308;8.258;2023-02-01T01:27:35;5.00;1.00
5980;DHT22;3016;50.308;8.258;2023-02-01T01:30:36;5.00;1.00
5980;DHT22;3016;50.308;8.258;2023-02-01T01:33:37;5.00;1.00
5980;DHT22;3016;50.308;8.258;2023-02-01T01:36:38;5.00;1.00
5980;DHT22;3016;50.308;8.258;2023-02-01T01:39:38;5.10;1.00
5980;DHT22;3016;50.308;8.258;2023-02-01T01:42:41;5.10;1.00
5980;DHT22;3016;50.308;8.258;2023-02-01T01:45:43;5.10;1.00
5980;DHT22;3016;50.308;8.258;2023-02-01T01:48:44;5.20;1.00
5980;DHT22;3016;50.308;8.258;2023-02-01T01:51:51;5.20;1.00
5980;DHT22;3016;50.308;8.258;2023-02-01T01:54:53;5.20;1.00
5980;DHT22;3016;50.308;8.258;2023-02-01T01:57:58;5.20;1.00
5980;DHT22;3016;50.308;8.258;2023-02-01T02:01:01;5.20;1.00
5980;DHT22;3016;50.308;8.258;2023-02-01T02:04:02;5.20;1.00
5980;DHT22;3016;50.308;8.258;2023-02-01T02:07:08;5.30;1.00
5980;DHT22;3016;50.308;8.258;2023-02-01T02:10:12;5.30;1.00
5980;DHT22;3016;50.308;8.258;2023-02-01T02:13:15;5.40;1.00
5980;DHT22;3016;50.308;8.258;2023-02-01T02:16:41;5.40;1.00
5980;DHT22;3016;50.308;8.258;2023-02-01T02:23:57;5.50;1.00
5980;DHT22;3016;50.308;8.258;2023-02-01T02:31:32;5.50;1.00
5980;DHT22;3016;50.308;8.258;2023-02-01T02:34:55;5.50;1.00
5980;DHT22;3016;50.308;8.258;2023-02-01T02:38:30;5.60;1.00
5980;DHT22;3016;50.308;8.258;2023-02-01T02:42:01;5.60;1.00
5980;DHT22;3016;50.308;8.258;2023-02-01T02:45:54;5.60;1.00
5980;DHT22;3016;50.308;8.258;2023-02-01T02:50:02;5.60;1.00
5980;DHT22;3016;50.308;8.258;2023-02-01T02:53:18;5.60;1.00
5980;DHT22;3016;50.308;8.258;2023-02-01T02:56:41;5.60;1.00
5980;DHT22;3016;50.308;8.258;2023-02-01T03:00:02;5.60;1.00
5980;DHT22;3016;50.308;8.258;2023-02-01T03:03:24;5.50;1.00
5980;DHT22;3016;50.308;8.258;2023-02-01T03:06:44;5.50;1.00
5980;DHT22;3016;50.308;8.258;2023-02-01T03:09:47;5.50;1.00
5980;DHT22;3016;50.308;8.258;2023-02-01T03:12:50;5.50;1.00
5980;DHT22;3016;50.308;8.258;2023-02-01T03:16:24;5.40;1.00
5980;DHT22;3016;50.308;8.258;2023-02-01T03:19:37;5.40;1.00
5980;DHT22;3016;50.308;8.258;2023-02-01T03:22:44;5.40;1.00
5980;DHT22;3016;50.308;8.258;2023-02-01T03:25:48;5.40;1.00
5980;DHT22;3016;50.308;8.258;2023-02-01T03:28:56;5.40;1.00
5980;DHT22;3016;50.308;8.258;2023-02-01T03:31:59;5.40;1.00
5980;DHT22;3016;50.308;8.258;2023-02-01T03:35:00;5.40;1.00
5980;DHT22;3016;50.308;8.258;2023-02-01T03:38:07;5.40;1.00
5980;DHT22;3016;50.308;8.258;2023-02-01T03:41:43;5.40;1.00
5980;DHT22;3016;50.308;8.258;2023-02-01T03:45:03;5.40;1.00
5980;DHT22;3016;50.308;8.258;2023-02-01T03:48:07;5.40;1.00
5980;DHT22;3016;50.308;8.258;2023-02-01T03:51:09;5.40;1.00
5980;DHT22;3016;50.308;8.258;2023-02-01T03:54:13;5.40;1.00
5980;DHT22;3016;50.308;8.258;2023-02-01T03:57:21;5.40;1.00
5980;DHT22;3016;50.308;8.258;2023-02-01T04:00:25;5.40;1.00
5980;DHT22;3016;50.308;8.258;2023-02-01T04:03:27;5.40;1.00
5980;DHT22;3016;50.308;8.258;2023-02-01T04:06:28;5.40;1.00
5980;DHT22;3016;50.308;8.258;2023-02-01T04:09:29;5.50;1.00
5980;DHT22;3016;50.308;8.258;2023-02-01T04:12:30;5.50;1.00
5980;DHT22;3016;50.308;8.258;2023-02-01T04:15:30;5.50;1.00
5980;DHT22;3016;50.308;8.258;2023-02-01T04:18:31;5.40;1.00
5980;DHT22;3016;50.308;8.258;2023-02-01T04:21:32;5.50;1.00
5980;DHT22;3016;50.308;8.258;2023-02-01T04:24:32;5.40;1.00
5980;DHT22;3016;50.308;8.258;2023-02-01T04:27:33;5.40;1.00
5980;DHT22;3016;50.308;8.258;2023-02-01T04:30:34;5.40;1.00
5980;DHT22;3016;50.308;8.258;2023-02-01T04:33:35;5.50;1.00
5980;DHT22;3016;50.308;8.258;2023-02-01T04:36:35;5.50;1.00
5980;DHT22;3016;50.308;8.258;2023-02-01T04:39:36;5.50;1.00
5980;DHT22;3016;50.308;8.258;2023-02-01T04:42:37;5.40;1.00
5980;DHT22;3016;50.308;8.258;2023-02-01T04:45:37;5.40;1.00
5980;DHT22;3016;50.308;8.258;2023-02-01T04:48:38;5.40;1.00
5980;DHT22;3016;50.308;8.258;2023-02-01T04:51:39;5.40;1.00
5980;DHT22;3016;50.308;8.258;2023-02-01T04:54:40;5.50;1.00
5980;DHT22;3016;50.308;8.258;2023-02-01T04:57:41;5.50;1.00
5980;DHT22;3016;50.308;8.258;2023-02-01T05:00:41;5.50;1.00
5980;DHT22;3016;50.308;8.258;2023-02-01T05:03:43;5.60;1.00
5980;DHT22;3016;50.308;8.258;2023-02-01T05:06:44;5.60;1.00
5980;DHT22;3016;50.308;8.258;2023-02-01T05:09:45;5.60;1.00
5980;DHT22;3016;50.308;8.258;2023-02-01T05:12:45;5.60;1.00
5980;DHT22;3016;50.308;8.258;2023-02-01T05:16:06;5.60;1.00
5980;DHT22;3016;50.308;8.258;2023-02-01T05:19:07;5.60;1.00
5980;DHT22;3016;50.308;8.258;2023-02-01T05:22:07;5.60;1.00
5980;DHT22;3016;50.308;8.258;2023-02-01T05:25:08;5.60;1.00
5980;DHT22;3016;50.308;8.258;2023-02-01T05:28:09;5.60;1.00
5980;DHT22;3016;50.308;8.258;2023-02-01T05:31:11;5.50;1.00
5980;DHT22;3016;50.308;8.258;2023-02-01T05:34:14;5.40;1.00
5980;DHT22;3016;50.308;8.258;2023-02-01T05:37:15;5.30;1.00
5980;DHT22;3016;50.308;8.258;2023-02-01T05:40:16;5.30;1.00
5980;DHT22;3016;50.308;8.258;2023-02-01T05:43:17;5.20;1.00
5980;DHT22;3016;50.308;8.258;2023-02-01T05:46:17;5.10;1.00
5980;DHT22;3016;50.308;8.258;2023-02-01T05:49:18;5.10;1.00
5980;DHT22;3016;50.308;8.258;2023-02-01T05:52:29;5.00;1.00
5980;DHT22;3016;50.308;8.258;2023-02-01T05:55:31;5.00;1.00
5980;DHT22;3016;50.308;8.258;2023-02-01T06:01:46;4.80;1.00
5980;DHT22;3016;50.308;8.258;2023-02-01T06:11:09;4.90;1.00
5980;DHT22;3016;50.308;8.258;2023-02-01T06:14:10;4.90;1.00
5980;DHT22;3016;50.308;8.258;2023-02-01T06:17:11;4.80;1.00
5980;DHT22;3016;50.308;8.258;2023-02-01T06:23:29;4.70;1.00
5980;DHT22;3016;50.308;8.258;2023-02-01T06:36:04;4.70;1.00
5980;DHT22;3016;50.308;8.258;2023-02-01T06:39:06;4.70;1.00
5980;DHT22;3016;50.308;8.258;2023-02-01T06:42:07;4.70;1.00
5980;DHT22;3016;50.308;8.258;2023-02-01T06:45:08;4.60;1.00
5980;DHT22;3016;50.308;8.258;2023-02-01T06:48:09;4.60;1.00
5980;DHT22;3016;50.308;8.258;2023-02-01T06:51:18;4.60;1.00
5980;DHT22;3016;50.308;8.258;2023-02-01T06:54:21;4.60;1.00
5980;DHT22;3016;50.308;8.258;2023-02-01T06:57:21;4.60;1.00
5980;DHT22;3016;50.308;8.258;2023-02-01T07:00:22;4.60;1.00
5980;DHT22;3016;50.308;8.258;2023-02-01T07:03:23;4.60;1.00
5980;DHT22;3016;50.308;8.258;2023-02-01T07:06:26;4.50;1.00
5980;DHT22;3016;50.308;8.258;2023-02-01T07:09:26;4.50;1.00
5980;DHT22;3016;50.308;8.258;2023-02-01T07:12:27;4.60;1.00
5980;DHT22;3016;50.308;8.258;2023-02-01T07:15:28;4.50;1.00
5980;DHT22;3016;50.308;8.258;2023-02-01T07:18:29;4.50;1.00
5980;DHT22;3016;50.308;8.258;2023-02-01T07:21:30;4.50;1.00
5980;DHT22;3016;50.308;8.258;2023-02-01T07:24:31;4.50;1.00
5980;DHT22;3016;50.308;8.258;2023-02-01T07:27:36;4.50;1.00
5980;DHT22;3016;50.308;8.258;2023-02-01T07:30:37;4.60;1.00
5980;DHT22;3016;50.308;8.258;2023-02-01T07:33:38;4.60;1.00
5980;DHT22;3016;50.308;8.258;2023-02-01T07:36:39;4.60;1.00
5980;DHT22;3016;50.308;8.258;2023-02-01T07:39:40;4.70;1.00
5980;DHT22;3016;50.308;8.258;2023-02-01T07:42:41;4.70;1.00
5980;DHT22;3016;50.308;8.258;2023-02-01T07:48:52;4.80;1.00
5980;DHT22;3016;50.308;8.258;2023-02-01T07:55:13;4.80;1.00
5980;DHT22;3016;50.308;8.258;2023-02-01T07:58:14;4.80;1.00
5980;DHT22;3016;50.308;8.258;2023-02-01T08:04:33;4.90;1.00
5980;DHT22;3016;50.308;8.258;2023-02-01T08:07:33;5.00;1.00
5980;DHT22;3016;50.308;8.258;2023-02-01T08:10:34;5.00;1.00
5980;DHT22;3016;50.308;8.258;2023-02-01T08:13:42;5.10;1.00
5980;DHT22;3016;50.308;8.258;2023-02-01T08:16:52;5.10;1.00
5980;DHT22;3016;50.308;8.258;2023-02-01T08:19:56;5.20;1.00
5980;DHT22;3016;50.308;8.258;2023-02-01T08:22:57;5.20;1.00
5980;DHT22;3016;50.308;8.258;2023-02-01T08:26:08;5.20;1.00
5980;DHT22;3016;50.308;8.258;2023-02-01T08:29:16;5.30;1.00
5980;DHT22;3016;50.308;8.258;2023-02-01T08:32:16;5.30;1.00
5980;DHT22;3016;50.308;8.258;2023-02-01T08:35:17;5.40;1.00
5980;DHT22;3016;50.308;8.258;2023-02-01T08:38:18;5.40;1.00
5980;DHT22;3016;50.308;8.258;2023-02-01T08:41:22;5.40;1.00
5980;DHT22;3016;50.308;8.258;2023-02-01T08:44:24;5.40;1.00
5980;DHT22;3016;50.308;8.258;2023-02-01T08:47:25;5.30;1.00
5980;DHT22;3016;50.308;8.258;2023-02-01T08:50:26;5.30;1.00
5980;DHT22;3016;50.308;8.258;2023-02-01T08:53:40;5.30;1.00
5980;DHT22;3016;50.308;8.258;2023-02-01T08:56:43;5.40;1.00
5980;DHT22;3016;50.308;8.258;2023-02-01T08:59:44;5.40;1.00
5980;DHT22;3016;50.308;8.258;2023-02-01T09:02:48;5.40;1.00
5980;DHT22;3016;50.308;8.258;2023-02-01T09:05:51;5.40;1.00
5980;DHT22;3016;50.308;8.258;2023-02-01T09:08:52;5.40;1.00
5980;DHT22;3016;50.308;8.258;2023-02-01T09:11:53;5.40;1.00
5980;DHT22;3016;50.308;8.258;2023-02-01T09:15:02;5.40;1.00
5980;DHT22;3016;50.308;8.258;2023-02-01T09:18:03;5.40;1.00
5980;DHT22;3016;50.308;8.258;2023-02-01T09:21:06;5.40;1.00
5980;DHT22;3016;50.308;8.258;2023-02-01T09:24:12;5.40;1.00
5980;DHT22;3016;50.308;8.258;2023-02-01T09:27:14;5.40;1.00
5980;DHT22;3016;50.308;8.258;2023-02-01T09:30:15;5.40;1.00
5980;DHT22;3016;50.308;8.258;2023-02-01T09:33:16;5.40;1.00
5980;DHT22;3016;50.308;8.258;2023-02-01T09:36:26;5.40;1.00
5980;DHT22;3016;50.308;8.258;2023-02-01T09:39:28;5.40;1.00
5980;DHT22;3016;50.308;8.258;2023-02-01T09:46:23;5.50;1.00
5980;DHT22;3016;50.308;8.258;2023-02-01T09:49:38;5.50;1.00
5980;DHT22;3016;50.308;8.258;2023-02-01T09:52:54;5.50;1.00
5980;DHT22;3016;50.308;8.258;2023-02-01T09:56:21;5.50;1.00
5980;DHT22;3016;50.308;8.258;2023-02-01T09:59:38;5.60;1.00
5980;DHT22;3016;50.308;8.258;2023-02-01T10:02:44;5.70;1.00
5980;DHT22;3016;50.308;8.258;2023-02-01T10:27:41;5.80;1.00
5980;DHT22;3016;50.308;8.258;2023-02-01T10:30:45;5.90;1.00
5980;DHT22;3016;50.308;8.258;2023-02-01T10:33:50;5.90;1.00
5980;DHT22;3016;50.308;8.258;2023-02-01T10:37:31;5.90;1.00
5980;DHT22;3016;50.308;8.258;2023-02-01T10:40:39;5.90;1.00
5980;DHT22;3016;50.308;8.258;2023-02-01T10:43:43;5.90;1.00
5980;DHT22;3016;50.308;8.258;2023-02-01T10:46:57;5.90;1.00
5980;DHT22;3016;50.308;8.258;2023-02-01T10:50:15;5.90;1.00
5980;DHT22;3016;50.308;8.258;2023-02-01T10:53:22;5.90;1.00
5980;DHT22;3016;50.308;8.258;2023-02-01T10:56:28;5.90;1.00
5980;DHT22;3016;50.308;8.258;2023-02-01T10:59:30;5.90;1.00
5980;DHT22;3016;50.308;8.258;2023-02-01T11:02:36;5.90;1.00
5980;DHT22;3016;50.308;8.258;2023-02-01T11:05:46;5.90;1.00
5980;DHT22;3016;50.308;8.258;2023-02-01T11:09:01;6.00;1.00
5980;DHT22;3016;50.308;8.258;2023-02-01T11:15:30;6.10;1.00
5980;DHT22;3016;50.308;8.258;2023-02-01T11:21:43;6.20;1.00
5980;DHT22;3016;50.308;8.258;2023-02-01T11:24:46;6.30;1.00
5980;DHT22;3016;50.308;8.258;2023-02-01T11:28:02;6.30;1.00
5980;DHT22;3016;50.308;8.258;2023-02-01T11:41:13;6.50;1.00
5980;DHT22;3016;50.308;8.258;2023-02-01T11:44:23;6.50;1.00
5980;DHT22;3016;50.308;8.258;2023-02-01T11:47:38;6.60;1.00
5980;DHT22;3016;50.308;8.258;2023-02-01T12:24:41;7.00;1.00
5980;DHT22;3016;50.308;8.258;2023-02-01T12:58:30;6.60;1.00
5980;DHT22;3016;50.308;8.258;2023-02-01T14:43:10;7.10;1.00
5980;DHT22;3016;50.308;8.258;2023-02-01T16:13:20;6.30;1.00
5980;DHT22;3016;50.308;8.258;2023-02-01T20:41:59;5.30;1.00
5980;DHT22;3016;50.308;8.258;2023-02-01T20:51:27;5.20;1.00
5980;DHT22;3016;50.308;8.258;2023-02-01T20:54:28;5.20;1.00
5980;DHT22;3016;50.308;8.258;2023-02-01T20:57:31;5.30;1.00
5980;DHT22;3016;50.308;8.258;2023-02-01T21:00:39;5.20;1.00
5980;DHT22;3016;50.308;8.258;2023-02-01T21:03:40;5.20;1.00
5980;DHT22;3016;50.308;8.258;2023-02-01T21:06:44;5.30;1.00
5980;DHT22;3016;50.308;8.258;2023-02-01T21:09:53;5.30;1.00
5980;DHT22;3016;50.308;8.258;2023-02-01T21:12:55;5.30;1.00
5980;DHT22;3016;50.308;8.258;2023-02-01T21:16:00;5.20;1.00
5980;DHT22;3016;50.308;8.258;2023-02-01T21:19:03;5.10;1.00
5980;DHT22;3016;50.308;8.258;2023-02-01T21:22:11;5.10;1.00
5980;DHT22;3016;50.308;8.258;2023-02-01T21:25:16;5.10;1.00
5980;DHT22;3016;50.308;8.258;2023-02-01T21:28:18;5.10;1.00
5980;DHT22;3016;50.308;8.258;2023-02-01T21:31:20;5.10;1.00
5980;DHT22;3016;50.308;8.258;2023-02-01T21:34:21;5.10;1.00
5980;DHT22;3016;50.308;8.258;2023-02-01T21:37:22;5.20;1.00
5980;DHT22;3016;50.308;8.258;2023-02-01T21:40:25;5.20;1.00
5980;DHT22;3016;50.308;8.258;2023-02-01T21:43:25;5.30;1.00
5980;DHT22;3016;50.308;8.258;2023-02-01T21:46:26;5.40;1.00
5980;DHT22;3016;50.308;8.258;2023-02-01T21:49:27;5.50;1.00
5980;DHT22;3016;50.308;8.258;2023-02-01T21:52:32;5.50;1.00
5980;DHT22;3016;50.308;8.258;2023-02-01T21:55:34;5.50;1.00
5980;DHT22;3016;50.308;8.258;2023-02-01T21:58:35;5.50;1.00
5980;DHT22;3016;50.308;8.258;2023-02-01T22:01:37;5.60;1.00
5980;DHT22;3016;50.308;8.258;2023-02-01T22:04:46;5.60;1.00
5980;DHT22;3016;50.308;8.258;2023-02-01T22:07:48;5.60;1.00
5980;DHT22;3016;50.308;8.258;2023-02-01T22:10:49;5.70;1.00
5980;DHT22;3016;50.308;8.258;2023-02-01T22:13:49;5.70;1.00
5980;DHT22;3016;50.308;8.258;2023-02-01T22:16:50;5.70;1.00
5980;DHT22;3016;50.308;8.258;2023-02-01T22:19:51;5.80;1.00
5980;DHT22;3016;50.308;8.258;2023-02-01T22:22:52;5.80;1.00
5980;DHT22;3016;50.308;8.258;2023-02-01T22:29:24;5.80;1.00
5980;DHT22;3016;50.308;8.258;2023-02-01T22:32:27;5.70;1.00
5980;DHT22;3016;50.308;8.258;2023-02-01T22:35:36;5.70;1.00
5980;DHT22;3016;50.308;8.258;2023-02-01T22:38:37;5.70;1.00
5980;DHT22;3016;50.308;8.258;2023-02-01T22:41:56;5.60;1.00
5980;DHT22;3016;50.308;8.258;2023-02-01T22:44:57;5.60;1.00
5980;DHT22;3016;50.308;8.258;2023-02-01T22:51:23;5.60;1.00
5980;DHT22;3016;50.308;8.258;2023-02-01T22:54:48;5.70;1.00
5980;DHT22;3016;50.308;8.258;2023-02-01T22:58:21;5.70;1.00
5980;DHT22;3016;50.308;8.258;2023-02-01T23:01:22;5.70;1.00
5980;DHT22;3016;50.308;8.258;2023-02-01T23:04:23;5.70;1.00
5980;DHT22;3016;50.308;8.258;2023-02-01T23:07:30;5.80;1.00
5980;DHT22;3016;50.308;8.258;2023-02-01T23:10:31;5.80;1.00
5980;DHT22;3016;50.308;8.258;2023-02-01T23:13:33;5.90;1.00
5980;DHT22;3016;50.308;8.258;2023-02-01T23:16:34;5.90;1.00
5980;DHT22;3016;50.308;8.258;2023-02-01T23:19:35;5.90;1.00
5980;DHT22;3016;50.308;8.258;2023-02-01T23:22:36;5.90;1.00
5980;DHT22;3016;50.308;8.258;2023-02-01T23:25:37;5.90;1.00
5980;DHT22;3016;50.308;8.258;2023-02-01T23:28:38;5.90;1.00
5980;DHT22;3016;50.308;8.258;2023-02-01T23:31:39;5.90;1.00
5980;DHT22;3016;50.308;8.258;2023-02-01T23:34:39;5.90;1.00
5980;DHT22;3016;50.308;8.258;2023-02-01T23:37:40;6.00;1.00
5980;DHT22;3016;50.308;8.258;2023-02-01T23:40:41;6.00;1.00
5980;DHT22;3016;50.308;8.258;2023-02-01T23:43:42;5.90;1.00
5980;DHT22;3016;50.308;8.258;2023-02-01T23:46:58;5.90;1.00
5980;DHT22;3016;50.308;8.258;2023-02-01T23:50:06;5.90;1.00
5980;DHT22;3016;50.308;8.258;2023-02-01T23:53:07;5.90;1.00
5980;DHT22;3016;50.308;8.258;2023-02-01T23:56:44;5.90;1.00
5980;DHT22;3016;50.308;8.258;2023-02-01T23:59:48;5.90;1.00
